createdAt,value
2019-04-10T00:04:36.965Z,9.37
2019-04-10T00:09:33.047Z,8.97
2019-04-10T00:14:28.975Z,9.43
2019-04-10T00:19:24.928Z,6.43
2019-04-10T00:24:21.945Z,10.00
2019-04-10T00:29:18.275Z,9.17
2019-04-10T00:34:14.232Z,8.30
2019-04-10T00:39:10.567Z,7.20
2019-04-10T00:44:07.715Z,9.60
2019-04-10T00:49:03.848Z,10.23
2019-04-10T00:54:01.263Z,8.57
2019-04-10T00:58:57.578Z,7.10
2019-04-10T01:03:53.918Z,8.27
2019-04-10T01:08:51.038Z,7.63
2019-04-10T01:13:47.446Z,7.73
2019-04-10T01:18:43.642Z,8.10
2019-04-10T01:23:47.264Z,7.70
2019-04-10T01:28:43.298Z,7.73
2019-04-10T01:33:39.615Z,8.20
2019-04-10T01:38:35.609Z,7.20
2019-04-10T01:43:31.537Z,6.80
2019-04-10T01:48:27.976Z,6.00
2019-04-10T01:53:24.103Z,6.37
2019-04-10T01:58:21.829Z,7.90
2019-04-10T02:03:18.100Z,6.80
2019-04-10T02:08:16.058Z,5.67
2019-04-10T02:13:11.969Z,5.80
2019-04-10T02:18:08.862Z,3.80
2019-04-10T02:23:05.843Z,5.90
2019-04-10T02:28:02.773Z,6.10
2019-04-10T02:32:59.784Z,4.40
2019-04-10T02:37:56.648Z,5.93
2019-04-10T02:42:54.713Z,5.77
2019-04-10T02:47:51.036Z,6.97
2019-04-10T02:52:50.110Z,5.03
2019-04-10T02:57:45.958Z,5.80
2019-04-10T03:02:42.959Z,5.40
2019-04-10T03:07:40.341Z,5.97
2019-04-10T03:12:38.562Z,5.13
2019-04-10T03:17:34.940Z,3.27
2019-04-10T03:22:31.096Z,4.40
2019-04-10T03:27:28.035Z,3.40
2019-04-10T03:32:44.458Z,4.40
2019-04-10T03:37:39.056Z,4.70
2019-04-10T03:42:35.016Z,4.67
2019-04-10T03:47:31.334Z,4.70
2019-04-10T03:52:27.490Z,3.93
2019-04-10T03:57:24.613Z,5.20
2019-04-10T04:02:21.718Z,5.93
2019-04-10T04:07:18.220Z,4.40
2019-04-10T04:12:14.737Z,5.93
2019-04-10T04:17:11.536Z,3.40
2019-04-10T04:22:10.125Z,5.40
2019-04-10T04:27:08.968Z,6.10
2019-04-10T04:32:06.922Z,6.53
2019-04-10T04:37:05.072Z,3.37
2019-04-10T04:42:01.652Z,6.40
2019-04-10T04:46:59.137Z,5.83
2019-04-10T04:51:56.018Z,6.63
2019-04-10T04:56:52.555Z,4.93
2019-04-10T05:01:48.900Z,5.60
2019-04-10T05:06:45.835Z,5.67
2019-04-10T05:11:42.687Z,6.17
2019-04-10T05:16:39.554Z,6.10
2019-04-10T05:21:35.636Z,5.30
2019-04-10T05:26:32.338Z,6.10
2019-04-10T05:31:28.303Z,3.67
2019-04-10T05:36:24.197Z,3.67
2019-04-10T05:41:20.121Z,5.73
2019-04-10T05:46:16.514Z,5.57
2019-04-10T05:51:12.692Z,6.10
2019-04-10T05:56:08.615Z,5.57
2019-04-10T06:01:06.045Z,7.33
2019-04-10T06:06:02.175Z,6.27
2019-04-10T06:10:58.254Z,6.00
2019-04-10T06:15:55.090Z,5.83
2019-04-10T06:20:51.159Z,6.13
2019-04-10T06:25:47.828Z,5.60
2019-04-10T06:30:43.935Z,6.67
2019-04-10T06:35:39.948Z,6.10
2019-04-10T06:40:35.963Z,6.20
2019-04-10T06:45:31.890Z,7.03
2019-04-10T06:50:29.427Z,6.90
2019-04-10T06:55:25.659Z,6.40
2019-04-10T07:00:21.588Z,7.37
2019-04-10T07:05:17.509Z,7.00
2019-04-10T07:10:26.134Z,8.00
2019-04-10T07:15:14.628Z,6.87
2019-04-10T07:20:11.587Z,7.53
2019-04-10T07:25:10.366Z,6.87
2019-04-10T07:30:09.732Z,6.83
2019-04-10T07:35:08.858Z,8.37
2019-04-10T07:40:06.062Z,7.50
2019-04-10T07:45:04.074Z,8.40
2019-04-10T07:50:02.185Z,6.00
2019-04-10T07:54:58.698Z,7.77
2019-04-10T07:59:54.825Z,7.40
2019-04-10T08:04:51.659Z,7.20
2019-04-10T08:09:47.705Z,8.90
2019-04-10T08:14:44.271Z,8.60
2019-04-10T08:19:41.154Z,7.70
2019-04-10T08:24:37.147Z,4.60
2019-04-10T08:29:33.073Z,9.10
2019-04-10T08:34:29.026Z,6.03
2019-04-10T08:39:35.318Z,8.77
2019-04-10T08:44:22.920Z,5.90
2019-04-10T08:49:18.841Z,7.03
2019-04-10T08:54:16.199Z,8.50
2019-04-10T08:59:12.346Z,9.63
2019-04-10T09:04:08.277Z,9.10
2019-04-10T09:09:05.835Z,8.93
2019-04-10T09:14:01.780Z,10.50
2019-04-10T09:18:57.927Z,11.87
2019-04-10T09:23:57.433Z,11.63
2019-04-10T09:28:53.392Z,9.40
2019-04-10T09:33:49.574Z,10.13
2019-04-10T09:38:45.586Z,10.73
2019-04-10T09:43:42.157Z,9.40
2019-04-10T09:48:38.141Z,9.93
2019-04-10T09:53:37.185Z,9.13
2019-04-10T09:58:33.970Z,7.57
2019-04-10T10:03:30.325Z,9.90
2019-04-10T10:08:26.862Z,9.93
2019-04-10T10:13:23.550Z,10.03
2019-04-10T10:18:19.568Z,9.87
2019-04-10T10:23:19.891Z,10.00
2019-04-10T10:28:15.982Z,9.70
2019-04-10T10:33:13.126Z,8.07
2019-04-10T10:38:09.307Z,9.23
2019-04-10T10:43:05.233Z,9.90
2019-04-10T10:48:03.231Z,6.10
2019-04-10T10:53:00.317Z,10.37
2019-04-10T10:57:57.577Z,11.00
2019-04-10T11:02:54.422Z,12.13
2019-04-10T11:07:55.821Z,11.67
2019-04-10T11:12:54.194Z,11.30
2019-04-10T11:17:52.120Z,10.70
2019-04-10T11:22:51.338Z,11.60
2019-04-10T11:27:51.549Z,9.73
2019-04-10T11:32:50.744Z,10.70
2019-04-10T11:42:48.463Z,10.40
2019-04-10T11:47:47.488Z,10.57
2019-04-10T11:57:46.939Z,11.57
2019-04-10T12:02:45.871Z,10.20
2019-04-10T12:08:09.559Z,10.70
2019-04-10T12:12:39.025Z,9.53
2019-04-10T12:17:35.836Z,9.70
2019-04-10T12:22:31.936Z,10.47
2019-04-10T12:27:27.893Z,10.10
2019-04-10T12:32:24.762Z,9.80
2019-04-10T12:37:20.955Z,11.17
2019-04-10T12:42:16.957Z,8.90
2019-04-10T12:47:13.427Z,9.53
2019-04-10T12:52:10.190Z,8.60
2019-04-10T12:57:06.473Z,8.87
2019-04-10T13:02:02.931Z,8.70
2019-04-10T13:06:59.079Z,8.10
2019-04-10T13:11:55.077Z,6.60
2019-04-10T13:16:52.193Z,8.50
2019-04-10T13:21:48.176Z,7.27
2019-04-10T13:26:44.117Z,8.37
2019-04-10T13:31:40.144Z,7.80
2019-04-10T13:36:36.171Z,7.00
2019-04-10T13:41:32.422Z,7.20
2019-04-10T13:46:28.965Z,5.40
2019-04-10T13:51:25.484Z,6.37
2019-04-10T13:56:21.578Z,8.03
2019-04-10T14:01:19.679Z,7.60
2019-04-10T14:06:17.129Z,7.07
2019-04-10T14:11:13.318Z,8.20
2019-04-10T14:16:09.349Z,6.77
2019-04-10T14:21:11.061Z,5.90
2019-04-10T14:26:22.547Z,7.83
2019-04-10T14:31:20.650Z,5.40
2019-04-10T14:36:16.681Z,7.63
2019-04-10T14:41:13.652Z,7.80
2019-04-10T14:46:10.327Z,5.53
2019-04-10T14:51:06.439Z,5.37
2019-04-10T14:56:04.060Z,6.93
2019-04-10T15:01:02.669Z,5.80
2019-04-10T15:06:01.148Z,5.97
2019-04-10T15:11:00.343Z,6.47
2019-04-10T15:15:58.729Z,6.17
2019-04-10T15:20:56.680Z,5.70
2019-04-10T15:25:52.667Z,7.00
2019-04-10T15:30:48.686Z,5.07
2019-04-10T15:35:44.792Z,6.73
2019-04-10T15:40:42.011Z,7.07
2019-04-10T15:45:38.050Z,7.20
2019-04-10T15:50:34.670Z,6.03
2019-04-10T15:55:32.188Z,7.10
2019-04-10T16:00:29.381Z,5.80
2019-04-10T16:05:25.761Z,5.67
2019-04-10T16:10:26.544Z,5.80
2019-04-10T16:15:22.669Z,5.83
2019-04-10T16:20:21.652Z,6.23
2019-04-10T16:25:22.399Z,6.50
2019-04-10T16:30:20.343Z,4.10
2019-04-10T16:35:16.807Z,5.80
2019-04-10T16:40:18.538Z,5.23
2019-04-10T16:45:17.618Z,4.87
2019-04-10T16:50:14.860Z,4.50
2019-04-10T16:55:13.633Z,5.10
2019-04-10T17:00:14.158Z,5.13
2019-04-10T17:05:10.213Z,5.20
2019-04-10T17:10:15.969Z,4.70
2019-04-10T17:20:26.653Z,4.87
2019-04-10T17:25:24.334Z,5.57
2019-04-10T17:30:21.984Z,4.90
2019-04-10T17:35:19.313Z,4.77
2019-04-10T17:40:28.515Z,5.17
2019-04-10T17:45:15.136Z,4.30
2019-04-10T17:50:14.166Z,5.30
2019-04-10T17:55:13.398Z,5.27
2019-04-10T18:00:20.926Z,4.63
2019-04-10T18:05:18.195Z,4.50
2019-04-10T18:10:14.758Z,4.70
2019-04-10T18:15:11.490Z,5.33
2019-04-10T18:20:08.403Z,4.23
2019-04-10T18:25:05.578Z,4.30
2019-04-10T18:30:01.881Z,4.80
2019-04-10T18:34:58.454Z,5.10
2019-04-10T18:39:55.000Z,5.43
2019-04-10T18:44:51.182Z,5.23
2019-04-10T18:49:47.546Z,3.90
2019-04-10T18:54:44.243Z,4.40
2019-04-10T18:59:58.791Z,4.30
2019-04-10T19:05:09.828Z,4.20
2019-04-10T19:10:12.788Z,4.40
2019-04-10T19:15:10.728Z,4.57
2019-04-10T19:20:08.908Z,4.77
2019-04-10T19:25:08.186Z,4.87
2019-04-10T19:30:08.779Z,4.33
2019-04-10T19:35:06.626Z,4.60
2019-04-10T19:40:05.244Z,5.43
2019-04-10T19:45:05.622Z,5.23
2019-04-10T19:50:03.515Z,5.40
2019-04-10T19:54:59.692Z,4.50
2019-04-10T19:59:56.288Z,5.43
2019-04-10T20:04:56.990Z,5.87
2019-04-10T20:09:54.948Z,5.00
2019-04-10T20:14:53.248Z,4.40
2019-04-10T20:19:52.609Z,4.97
2019-04-10T20:24:50.363Z,4.70
2019-04-10T20:29:47.705Z,5.10
2019-04-10T20:34:45.245Z,4.60
2019-04-10T20:39:42.745Z,4.63
2019-04-10T20:44:39.205Z,4.37
2019-04-10T20:49:36.443Z,5.17
2019-04-10T20:54:35.040Z,4.63
2019-04-10T20:59:33.355Z,3.47
2019-04-10T21:04:34.594Z,4.30
2019-04-10T21:09:32.068Z,4.50
2019-04-10T21:14:29.670Z,4.97
2019-04-10T21:19:26.959Z,4.10
2019-04-10T21:24:23.930Z,3.73
2019-04-10T21:29:26.068Z,4.83
2019-04-10T21:34:24.327Z,3.83
2019-04-10T21:39:21.185Z,4.63
2019-04-10T21:44:18.281Z,4.63
2019-04-10T21:49:15.500Z,3.80
2019-04-10T21:54:12.478Z,3.80
2019-04-10T21:59:09.038Z,4.13
2019-04-10T22:04:06.344Z,4.57
2019-04-10T22:09:12.621Z,4.33
2019-04-10T22:14:10.923Z,3.50
2019-04-10T22:19:10.518Z,3.90
2019-04-10T22:24:07.395Z,3.73
2019-04-10T22:29:03.659Z,4.90
2019-04-10T22:34:00.755Z,4.20
2019-04-10T22:38:56.821Z,4.77
2019-04-10T22:43:52.840Z,4.87
2019-04-10T22:48:49.980Z,4.00
2019-04-10T22:53:50.994Z,3.70
2019-04-10T22:58:46.996Z,4.07
2019-04-10T23:03:43.247Z,3.93
2019-04-10T23:08:39.897Z,4.50
2019-04-10T23:13:36.249Z,4.23
2019-04-10T23:18:32.376Z,3.53
2019-04-10T23:23:30.859Z,4.90
2019-04-10T23:28:27.330Z,3.43
2019-04-10T23:33:23.902Z,3.63
2019-04-10T23:38:19.919Z,3.87
2019-04-10T23:43:18.189Z,3.57
2019-04-10T23:48:14.838Z,4.30
2019-04-10T23:53:12.021Z,4.40
2019-04-10T23:58:08.000Z,4.30
